sensor_id;sensor_type;location;lat;lon;timestamp;pressure;altitude;pressure_sealevel;temperature;humidity
11017;BME280;54687;50.800;6.772;2023-08-07T00:01:19;94861.69;;;-144.06;29.23
11017;BME280;54687;50.800;6.772;2023-08-07T00:03:45;94836.28;;;-144.06;29.17
11017;BME280;54687;50.800;6.772;2023-08-07T00:06:12;94802.41;;;-144.06;29.25
11017;BME280;54687;50.800;6.772;2023-08-07T00:08:40;94893.44;;;-144.06;29.17
11017;BME280;54687;50.800;6.772;2023-08-07T00:11:07;94925.19;;;-144.06;29.37
11017;BME280;54687;50.800;6.772;2023-08-07T00:13:34;94971.75;;;-144.06;29.35
11017;BME280;54687;50.800;6.772;2023-08-07T00:16:01;94878.59;;;-144.06;29.24
11017;BME280;54687;50.800;6.772;2023-08-07T00:18:30;94817.22;;;-144.06;29.23
11017;BME280;54687;50.800;6.772;2023-08-07T00:20:59;94838.38;;;-144.06;29.19
11017;BME280;54687;50.800;6.772;2023-08-07T00:23:28;94777.00;;;-144.06;29.14
11017;BME280;54687;50.800;6.772;2023-08-07T00:26:00;94810.88;;;-144.06;29.06
11017;BME280;54687;50.800;6.772;2023-08-07T00:28:31;94823.56;;;-144.06;29.09
11017;BME280;54687;50.800;6.772;2023-08-07T00:30:58;94777.00;;;-144.06;29.08
11017;BME280;54687;50.800;6.772;2023-08-07T00:33:30;94777.00;;;-144.06;29.07
11017;BME280;54687;50.800;6.772;2023-08-07T00:35:57;94827.81;;;-144.06;29.19
11017;BME280;54687;50.800;6.772;2023-08-07T00:38:26;94840.50;;;-144.06;29.06
11017;BME280;54687;50.800;6.772;2023-08-07T00:40:53;94859.56;;;-144.06;29.17
11017;BME280;54687;50.800;6.772;2023-08-07T00:43:22;94781.22;;;-144.06;29.10
11017;BME280;54687;50.800;6.772;2023-08-07T00:45:52;94796.06;;;-144.06;29.16
11017;BME280;54687;50.800;6.772;2023-08-07T00:48:20;94956.94;;;-144.06;29.40
11017;BME280;54687;50.800;6.772;2023-08-07T00:50:50;94853.22;;;-144.06;29.16
11017;BME280;54687;50.800;6.772;2023-08-07T00:53:17;94870.16;;;-144.06;29.09
11017;BME280;54687;50.800;6.772;2023-08-07T00:55:44;94920.94;;;-144.06;29.46
11017;BME280;54687;50.800;6.772;2023-08-07T00:58:11;94878.59;;;-144.06;29.24
11017;BME280;54687;50.800;6.772;2023-08-07T01:00:39;94865.91;;;-144.06;29.03
11017;BME280;54687;50.800;6.772;2023-08-07T01:03:07;94815.09;;;-144.06;29.02
11017;BME280;54687;50.800;6.772;2023-08-07T01:05:34;94815.09;;;-144.06;29.31
11017;BME280;54687;50.800;6.772;2023-08-07T01:08:01;94878.59;;;-144.06;29.37
11017;BME280;54687;50.800;6.772;2023-08-07T01:10:35;94832.03;;;-144.06;29.26
11017;BME280;54687;50.800;6.772;2023-08-07T01:13:18;94899.78;;;-144.06;29.24
11017;BME280;54687;50.800;6.772;2023-08-07T01:15:49;94874.38;;;-144.06;29.21
11017;BME280;54687;50.800;6.772;2023-08-07T01:18:18;94861.69;;;-144.06;29.05
11017;BME280;54687;50.800;6.772;2023-08-07T01:20:46;94808.75;;;-144.06;29.14
11017;BME280;54687;50.800;6.772;2023-08-07T01:23:14;94844.75;;;-144.06;29.15
11017;BME280;54687;50.800;6.772;2023-08-07T01:25:41;94802.41;;;-144.06;28.99
11017;BME280;54687;50.800;6.772;2023-08-07T01:28:14;94834.16;;;-144.06;29.34
11017;BME280;54687;50.800;6.772;2023-08-07T01:30:47;94870.16;;;-144.06;29.24
11017;BME280;54687;50.800;6.772;2023-08-07T01:33:20;94840.50;;;-144.06;28.84
11017;BME280;54687;50.800;6.772;2023-08-07T01:35:53;94827.81;;;-144.06;29.02
11017;BME280;54687;50.800;6.772;2023-08-07T01:38:23;94815.09;;;-144.06;28.90
11017;BME280;54687;50.800;6.772;2023-08-07T01:40:51;94823.56;;;-144.06;28.93
11017;BME280;54687;50.800;6.772;2023-08-07T01:43:19;94802.41;;;-144.06;29.09
11017;BME280;54687;50.800;6.772;2023-08-07T01:45:45;94855.31;;;-144.06;29.06
11017;BME280;54687;50.800;6.772;2023-08-07T01:48:12;94861.69;;;-144.06;29.04
11017;BME280;54687;50.800;6.772;2023-08-07T01:50:39;94908.25;;;-144.06;29.07
11017;BME280;54687;50.800;6.772;2023-08-07T01:53:05;94859.56;;;-144.06;28.94
11017;BME280;54687;50.800;6.772;2023-08-07T01:55:33;94848.97;;;-144.06;28.80
11017;BME280;54687;50.800;6.772;2023-08-07T01:58:00;94868.03;;;-144.06;29.09
11017;BME280;54687;50.800;6.772;2023-08-07T02:00:27;94895.53;;;-144.06;29.17
11017;BME280;54687;50.800;6.772;2023-08-07T02:02:54;94872.25;;;-144.06;29.07
11017;BME280;54687;50.800;6.772;2023-08-07T02:05:21;94827.81;;;-144.06;28.75
11017;BME280;54687;50.800;6.772;2023-08-07T02:07:48;94844.75;;;-144.06;28.94
11017;BME280;54687;50.800;6.772;2023-08-07T02:10:14;94865.91;;;-144.06;28.92
11017;BME280;54687;50.800;6.772;2023-08-07T02:12:42;94961.19;;;-144.06;28.97
11017;BME280;54687;50.800;6.772;2023-08-07T02:15:09;94916.72;;;-144.06;29.08
11017;BME280;54687;50.800;6.772;2023-08-07T02:17:36;94865.91;;;-144.06;28.92
11017;BME280;54687;50.800;6.772;2023-08-07T02:20:05;94829.91;;;-144.06;29.04
11017;BME280;54687;50.800;6.772;2023-08-07T02:22:31;94895.53;;;-144.06;28.65
11017;BME280;54687;50.800;6.772;2023-08-07T02:24:58;94865.91;;;-144.06;28.67
11017;BME280;54687;50.800;6.772;2023-08-07T02:27:25;94880.72;;;-144.06;28.88
11017;BME280;54687;50.800;6.772;2023-08-07T02:29:53;94796.06;;;-144.06;28.75
11017;BME280;54687;50.800;6.772;2023-08-07T02:32:19;94810.88;;;-144.06;28.61
11017;BME280;54687;50.800;6.772;2023-08-07T02:34:46;94777.00;;;-144.06;28.57
11017;BME280;54687;50.800;6.772;2023-08-07T02:37:12;94760.06;;;-144.06;28.55
11017;BME280;54687;50.800;6.772;2023-08-07T02:39:39;94713.50;;;-144.06;28.54
11017;BME280;54687;50.800;6.772;2023-08-07T02:42:06;94785.47;;;-144.06;28.53
11017;BME280;54687;50.800;6.772;2023-08-07T02:44:33;94772.75;;;-144.06;28.64
11017;BME280;54687;50.800;6.772;2023-08-07T02:47:01;94777.00;;;-144.06;28.60
11017;BME280;54687;50.800;6.772;2023-08-07T02:49:27;94760.06;;;-144.06;28.73
11017;BME280;54687;50.800;6.772;2023-08-07T02:51:54;94764.28;;;-144.06;28.49
11017;BME280;54687;50.800;6.772;2023-08-07T02:54:20;94887.09;;;-144.06;28.65
11017;BME280;54687;50.800;6.772;2023-08-07T02:56:47;94764.28;;;-144.06;28.68
11017;BME280;54687;50.800;6.772;2023-08-07T02:59:14;94781.22;;;-144.06;28.66
11017;BME280;54687;50.800;6.772;2023-08-07T03:01:41;94865.91;;;-144.06;28.53
11017;BME280;54687;50.800;6.772;2023-08-07T03:04:09;94819.34;;;-144.06;28.62
11017;BME280;54687;50.800;6.772;2023-08-07T03:06:35;94815.09;;;-144.06;28.82
11017;BME280;54687;50.800;6.772;2023-08-07T03:09:02;94832.03;;;-144.06;29.02
11017;BME280;54687;50.800;6.772;2023-08-07T03:11:29;94827.81;;;-144.06;28.90
11017;BME280;54687;50.800;6.772;2023-08-07T03:13:55;94813.00;;;-144.06;28.92
11017;BME280;54687;50.800;6.772;2023-08-07T03:16:22;94889.19;;;-144.06;28.92
11017;BME280;54687;50.800;6.772;2023-08-07T03:18:49;94878.59;;;-144.06;29.11
11017;BME280;54687;50.800;6.772;2023-08-07T03:21:16;94802.41;;;-144.06;28.90
11017;BME280;54687;50.800;6.772;2023-08-07T03:23:43;94772.75;;;-144.06;28.96
11017;BME280;54687;50.800;6.772;2023-08-07T03:26:11;94789.69;;;-144.06;28.82
11017;BME280;54687;50.800;6.772;2023-08-07T03:28:38;94848.97;;;-144.06;29.04
11017;BME280;54687;50.800;6.772;2023-08-07T03:31:05;94912.47;;;-144.06;29.41
11017;BME280;54687;50.800;6.772;2023-08-07T03:33:32;94842.63;;;-144.06;29.12
11017;BME280;54687;50.800;6.772;2023-08-07T03:35:59;94942.13;;;-144.06;29.40
11017;BME280;54687;50.800;6.772;2023-08-07T03:38:26;94899.78;;;-144.06;29.26
11017;BME280;54687;50.800;6.772;2023-08-07T03:40:53;94891.31;;;-144.06;29.18
11017;BME280;54687;50.800;6.772;2023-08-07T03:43:20;94891.31;;;-144.06;29.31
11017;BME280;54687;50.800;6.772;2023-08-07T03:45:46;94897.66;;;-144.06;29.29
11017;BME280;54687;50.800;6.772;2023-08-07T03:48:13;94884.97;;;-144.06;29.41
11017;BME280;54687;50.800;6.772;2023-08-07T03:50:39;94899.78;;;-144.06;29.44
11017;BME280;54687;50.800;6.772;2023-08-07T03:53:06;94946.34;;;-144.06;29.61
11017;BME280;54687;50.800;6.772;2023-08-07T03:55:34;94899.78;;;-144.06;29.55
11017;BME280;54687;50.800;6.772;2023-08-07T03:58:01;94857.44;;;-144.06;29.50
11017;BME280;54687;50.800;6.772;2023-08-07T04:00:28;94889.19;;;-144.06;29.71
11017;BME280;54687;50.800;6.772;2023-08-07T04:02:55;94865.91;;;-144.06;29.75
11017;BME280;54687;50.800;6.772;2023-08-07T04:05:21;94859.56;;;-144.06;29.78
11017;BME280;54687;50.800;6.772;2023-08-07T04:07:48;94904.00;;;-144.06;29.97
11017;BME280;54687;50.800;6.772;2023-08-07T04:10:15;94931.53;;;-144.06;30.00
11017;BME280;54687;50.800;6.772;2023-08-07T04:12:43;94893.44;;;-144.06;29.90
11017;BME280;54687;50.800;6.772;2023-08-07T04:15:09;94967.53;;;-144.06;29.85
11017;BME280;54687;50.800;6.772;2023-08-07T04:17:36;94933.66;;;-144.06;29.91
11017;BME280;54687;50.800;6.772;2023-08-07T04:20:04;94942.13;;;-144.06;30.01
11017;BME280;54687;50.800;6.772;2023-08-07T04:22:30;94925.19;;;-144.06;29.94
11017;BME280;54687;50.800;6.772;2023-08-07T04:24:57;94933.66;;;-144.06;29.81
11017;BME280;54687;50.800;6.772;2023-08-07T04:27:25;94940.00;;;-144.06;29.44
11017;BME280;54687;50.800;6.772;2023-08-07T04:29:53;94868.03;;;-144.06;29.51
11017;BME280;54687;50.800;6.772;2023-08-07T04:32:20;94901.91;;;-144.06;29.44
11017;BME280;54687;50.800;6.772;2023-08-07T04:34:46;94865.91;;;-144.06;29.42
11017;BME280;54687;50.800;6.772;2023-08-07T04:37:13;94878.59;;;-144.06;29.48
11017;BME280;54687;50.800;6.772;2023-08-07T04:39:39;94874.38;;;-144.06;29.51
11017;BME280;54687;50.800;6.772;2023-08-07T04:42:06;94882.84;;;-144.06;29.34
11017;BME280;54687;50.800;6.772;2023-08-07T04:44:33;94863.78;;;-144.06;29.49
11017;BME280;54687;50.800;6.772;2023-08-07T04:47:01;94819.34;;;-144.06;29.21
11017;BME280;54687;50.800;6.772;2023-08-07T04:49:28;94832.03;;;-144.06;29.14
11017;BME280;54687;50.800;6.772;2023-08-07T04:51:54;94848.97;;;-144.06;29.02
11017;BME280;54687;50.800;6.772;2023-08-07T04:54:21;94815.09;;;-144.06;29.01
11017;BME280;54687;50.800;6.772;2023-08-07T04:56:48;94861.69;;;-144.06;29.05
11017;BME280;54687;50.800;6.772;2023-08-07T04:59:14;94865.91;;;-144.06;29.11
11017;BME280;54687;50.800;6.772;2023-08-07T05:01:41;94859.56;;;-144.06;28.82
11017;BME280;54687;50.800;6.772;2023-08-07T05:04:09;94916.72;;;-144.06;28.92
11017;BME280;54687;50.800;6.772;2023-08-07T05:06:36;94908.25;;;-144.06;28.82
11017;BME280;54687;50.800;6.772;2023-08-07T05:09:02;94819.34;;;-144.06;28.94
11017;BME280;54687;50.800;6.772;2023-08-07T05:11:29;94848.97;;;-144.06;28.79
11017;BME280;54687;50.800;6.772;2023-08-07T05:13:56;94832.03;;;-144.06;28.87
11017;BME280;54687;50.800;6.772;2023-08-07T05:16:23;94806.63;;;-144.06;28.82
11017;BME280;54687;50.800;6.772;2023-08-07T05:18:50;94874.38;;;-144.06;28.75
11017;BME280;54687;50.800;6.772;2023-08-07T05:21:18;94798.16;;;-144.06;28.61
11017;BME280;54687;50.800;6.772;2023-08-07T05:23:44;94777.00;;;-144.06;28.54
11017;BME280;54687;50.800;6.772;2023-08-07T05:26:13;94726.19;;;-144.06;28.30
11017;BME280;54687;50.800;6.772;2023-08-07T05:28:39;94789.69;;;-144.06;28.60
11017;BME280;54687;50.800;6.772;2023-08-07T05:31:06;94781.22;;;-144.06;28.21
11017;BME280;54687;50.800;6.772;2023-08-07T05:33:32;94793.94;;;-144.06;28.31
11017;BME280;54687;50.800;6.772;2023-08-07T05:35:59;94870.16;;;-144.06;28.54
11017;BME280;54687;50.800;6.772;2023-08-07T05:38:27;94804.53;;;-144.06;28.44
11017;BME280;54687;50.800;6.772;2023-08-07T05:40:53;94832.03;;;-144.06;28.54
11017;BME280;54687;50.800;6.772;2023-08-07T05:43:20;94802.41;;;-144.06;28.41
11017;BME280;54687;50.800;6.772;2023-08-07T05:45:47;94743.13;;;-144.06;28.20
11017;BME280;54687;50.800;6.772;2023-08-07T05:48:14;94713.50;;;-144.06;28.31
11017;BME280;54687;50.800;6.772;2023-08-07T05:50:44;94823.56;;;-144.06;28.48
11017;BME280;54687;50.800;6.772;2023-08-07T05:53:11;94726.19;;;-144.06;28.26
11017;BME280;54687;50.800;6.772;2023-08-07T05:55:40;94719.84;;;-144.06;28.23
11017;BME280;54687;50.800;6.772;2023-08-07T05:58:07;94726.19;;;-144.06;27.94
11017;BME280;54687;50.800;6.772;2023-08-07T06:00:34;94688.09;;;-144.06;28.16
11017;BME280;54687;50.800;6.772;2023-08-07T06:03:00;94732.53;;;-144.06;27.81
11017;BME280;54687;50.800;6.772;2023-08-07T06:05:27;94757.94;;;-144.06;28.18
11017;BME280;54687;50.800;6.772;2023-08-07T06:07:54;94764.28;;;-144.06;28.22
11017;BME280;54687;50.800;6.772;2023-08-07T06:10:21;94787.59;;;-144.06;28.04
11017;BME280;54687;50.800;6.772;2023-08-07T06:12:49;94757.94;;;-144.06;28.09
11017;BME280;54687;50.800;6.772;2023-08-07T06:15:16;94774.88;;;-144.06;28.21
11017;BME280;54687;50.800;6.772;2023-08-07T06:17:42;94762.19;;;-144.06;28.10
11017;BME280;54687;50.800;6.772;2023-08-07T06:20:09;94823.56;;;-144.06;28.51
11017;BME280;54687;50.800;6.772;2023-08-07T06:22:37;94768.53;;;-144.06;28.58
11017;BME280;54687;50.800;6.772;2023-08-07T06:25:04;94844.75;;;-144.06;28.60
11017;BME280;54687;50.800;6.772;2023-08-07T06:27:32;94781.22;;;-144.06;28.45
11017;BME280;54687;50.800;6.772;2023-08-07T06:30:00;94779.13;;;-144.06;28.27
11017;BME280;54687;50.800;6.772;2023-08-07T06:32:27;94738.91;;;-144.06;28.72
11017;BME280;54687;50.800;6.772;2023-08-07T06:34:53;94766.41;;;-144.06;28.77
11017;BME280;54687;50.800;6.772;2023-08-07T06:37:20;94806.63;;;-144.06;28.92
11017;BME280;54687;50.800;6.772;2023-08-07T06:39:47;94878.59;;;-144.06;29.15
11017;BME280;54687;50.800;6.772;2023-08-07T06:42:13;94838.38;;;-144.06;29.26
11017;BME280;54687;50.800;6.772;2023-08-07T06:44:40;94844.75;;;-144.06;29.13
11017;BME280;54687;50.800;6.772;2023-08-07T06:47:08;94802.41;;;-144.06;29.10
11017;BME280;54687;50.800;6.772;2023-08-07T06:49:35;94751.59;;;-144.06;28.80
11017;BME280;54687;50.800;6.772;2023-08-07T06:52:02;94709.25;;;-144.06;28.78
11017;BME280;54687;50.800;6.772;2023-08-07T06:54:29;94751.59;;;-144.06;29.17
11017;BME280;54687;50.800;6.772;2023-08-07T06:56:56;94853.22;;;-144.06;29.21
11017;BME280;54687;50.800;6.772;2023-08-07T06:59:23;94891.31;;;-144.06;29.25
11017;BME280;54687;50.800;6.772;2023-08-07T07:01:51;94931.53;;;-144.06;29.63
11017;BME280;54687;50.800;6.772;2023-08-07T07:04:20;94912.47;;;-144.06;29.34
11017;BME280;54687;50.800;6.772;2023-08-07T07:06:47;94895.53;;;-144.06;29.62
11017;BME280;54687;50.800;6.772;2023-08-07T07:09:13;94791.81;;;-144.06;29.54
11017;BME280;54687;50.800;6.772;2023-08-07T07:11:42;94853.22;;;-144.06;29.54
11017;BME280;54687;50.800;6.772;2023-08-07T07:14:10;94821.44;;;-144.06;29.21
11017;BME280;54687;50.800;6.772;2023-08-07T07:16:36;94802.41;;;-144.06;29.23
11017;BME280;54687;50.800;6.772;2023-08-07T07:19:03;94804.53;;;-144.06;29.24
11017;BME280;54687;50.800;6.772;2023-08-07T07:21:34;94802.41;;;-144.06;29.12
11017;BME280;54687;50.800;6.772;2023-08-07T07:24:01;94840.50;;;-144.06;29.40
11017;BME280;54687;50.800;6.772;2023-08-07T07:26:28;94802.41;;;-144.06;29.16
11017;BME280;54687;50.800;6.772;2023-08-07T07:28:54;94721.97;;;-144.06;29.08
11017;BME280;54687;50.800;6.772;2023-08-07T07:31:22;94770.66;;;-144.06;29.22
11017;BME280;54687;50.800;6.772;2023-08-07T07:33:49;94757.94;;;-144.06;29.18
11017;BME280;54687;50.800;6.772;2023-08-07T07:36:16;94738.91;;;-144.06;29.07
11017;BME280;54687;50.800;6.772;2023-08-07T07:38:46;94685.97;;;-144.06;28.86
11017;BME280;54687;50.800;6.772;2023-08-07T07:41:13;94654.22;;;-144.06;28.87
11017;BME280;54687;50.800;6.772;2023-08-07T07:43:40;94641.53;;;-144.06;28.96
11017;BME280;54687;50.800;6.772;2023-08-07T07:46:07;94582.25;;;-144.06;28.82
11017;BME280;54687;50.800;6.772;2023-08-07T07:48:34;94539.91;;;-144.06;28.53
11017;BME280;54687;50.800;6.772;2023-08-07T07:51:01;94493.34;;;-144.06;28.46
11017;BME280;54687;50.800;6.772;2023-08-07T07:53:29;94493.34;;;-144.06;28.69
11017;BME280;54687;50.800;6.772;2023-08-07T07:55:57;94573.78;;;-144.06;28.58
11017;BME280;54687;50.800;6.772;2023-08-07T07:58:24;94478.53;;;-144.06;28.19
11017;BME280;54687;50.800;6.772;2023-08-07T08:00:50;94491.22;;;-144.06;28.21
11017;BME280;54687;50.800;6.772;2023-08-07T08:03:19;94516.63;;;-144.06;28.26
11017;BME280;54687;50.800;6.772;2023-08-07T08:05:48;94451.00;;;-144.06;28.11
11017;BME280;54687;50.800;6.772;2023-08-07T08:08:15;94476.41;;;-144.06;27.99
11017;BME280;54687;50.800;6.772;2023-08-07T08:10:42;94480.66;;;-144.06;28.01
11017;BME280;54687;50.800;6.772;2023-08-07T08:13:10;94398.09;;;-144.06;28.17
11017;BME280;54687;50.800;6.772;2023-08-07T08:15:37;94467.94;;;-144.06;28.21
11017;BME280;54687;50.800;6.772;2023-08-07T08:18:04;94398.09;;;-144.06;27.99
11017;BME280;54687;50.800;6.772;2023-08-07T08:20:30;94319.78;;;-144.06;27.87
11017;BME280;54687;50.800;6.772;2023-08-07T08:22:58;94309.19;;;-144.06;27.74
11017;BME280;54687;50.800;6.772;2023-08-07T08:25:25;94256.28;;;-144.06;27.47
11017;BME280;54687;50.800;6.772;2023-08-07T08:27:51;94131.41;;;-144.06;27.30
11017;BME280;54687;50.800;6.772;2023-08-07T08:30:20;94114.47;;;-144.06;27.08
11017;BME280;54687;50.800;6.772;2023-08-07T08:32:47;94099.66;;;-144.06;26.93
11017;BME280;54687;50.800;6.772;2023-08-07T08:35:14;94063.69;;;-144.06;26.89
11017;BME280;54687;50.800;6.772;2023-08-07T08:37:40;94086.97;;;-144.06;27.05
11017;BME280;54687;50.800;6.772;2023-08-07T08:40:08;94070.03;;;-144.06;26.83
11017;BME280;54687;50.800;6.772;2023-08-07T08:42:38;93989.59;;;-144.06;27.20
11017;BME280;54687;50.800;6.772;2023-08-07T08:45:09;93858.38;;;-144.06;26.47
11017;BME280;54687;50.800;6.772;2023-08-07T08:47:38;93875.31;;;-144.06;26.82
11017;BME280;54687;50.800;6.772;2023-08-07T08:50:07;93871.09;;;-144.06;26.37
11017;BME280;54687;50.800;6.772;2023-08-07T08:52:36;93771.63;;;-144.06;26.56
11017;BME280;54687;50.800;6.772;2023-08-07T08:55:04;93693.31;;;-144.06;26.32
11017;BME280;54687;50.800;6.772;2023-08-07T08:57:32;93803.38;;;-144.06;26.62
11017;BME280;54687;50.800;6.772;2023-08-07T09:00:00;93790.66;;;-144.06;26.35
11017;BME280;54687;50.800;6.772;2023-08-07T09:02:27;93689.09;;;-144.06;26.16
11017;BME280;54687;50.800;6.772;2023-08-07T09:04:55;93676.38;;;-144.06;26.03
11017;BME280;54687;50.800;6.772;2023-08-07T09:07:21;93665.81;;;-144.06;26.18
11017;BME280;54687;50.800;6.772;2023-08-07T09:09:49;93608.66;;;-144.06;25.88
11017;BME280;54687;50.800;6.772;2023-08-07T09:12:25;93625.59;;;-144.06;25.44
11017;BME280;54687;50.800;6.772;2023-08-07T09:14:56;93420.34;;;-144.06;25.73
11017;BME280;54687;50.800;6.772;2023-08-07T09:17:24;93310.28;;;-144.06;25.49
11017;BME280;54687;50.800;6.772;2023-08-07T09:19:51;93232.00;;;-144.06;25.34
11017;BME280;54687;50.800;6.772;2023-08-07T09:22:20;93378.00;;;-144.06;25.50
11017;BME280;54687;50.800;6.772;2023-08-07T09:24:46;93278.56;;;-144.06;25.56
11017;BME280;54687;50.800;6.772;2023-08-07T09:27:13;93346.28;;;-144.06;25.19
11017;BME280;54687;50.800;6.772;2023-08-07T09:29:40;93384.34;;;-144.06;25.29
11017;BME280;54687;50.800;6.772;2023-08-07T09:32:08;93346.28;;;-144.06;25.37
11017;BME280;54687;50.800;6.772;2023-08-07T09:34:38;93466.88;;;-144.06;25.18
11017;BME280;54687;50.800;6.772;2023-08-07T09:37:05;93530.38;;;-144.06;25.37
11017;BME280;54687;50.800;6.772;2023-08-07T09:39:34;93439.38;;;-144.06;25.37
11017;BME280;54687;50.800;6.772;2023-08-07T09:42:01;93485.94;;;-144.06;25.27
11017;BME280;54687;50.800;6.772;2023-08-07T09:44:34;93570.56;;;-144.06;24.98
11017;BME280;54687;50.800;6.772;2023-08-07T09:47:11;93667.91;;;-144.06;25.23
11017;BME280;54687;50.800;6.772;2023-08-07T09:49:38;93651.00;;;-144.06;25.27
11017;BME280;54687;50.800;6.772;2023-08-07T09:52:06;93803.38;;;-144.06;25.58
11017;BME280;54687;50.800;6.772;2023-08-07T09:54:35;93710.25;;;-144.06;25.48
11017;BME280;54687;50.800;6.772;2023-08-07T09:57:03;93689.09;;;-144.06;25.32
11017;BME280;54687;50.800;6.772;2023-08-07T09:59:29;93835.09;;;-144.06;25.49
11017;BME280;54687;50.800;6.772;2023-08-07T10:01:59;93816.06;;;-144.06;25.19
11017;BME280;54687;50.800;6.772;2023-08-07T10:04:26;93807.59;;;-144.06;25.53
11017;BME280;54687;50.800;6.772;2023-08-07T10:06:53;93744.09;;;-144.06;25.63
11017;BME280;54687;50.800;6.772;2023-08-07T10:09:20;93680.63;;;-144.06;25.56
11017;BME280;54687;50.800;6.772;2023-08-07T10:11:48;93469.00;;;-144.06;25.33
11017;BME280;54687;50.800;6.772;2023-08-07T10:14:16;93409.75;;;-144.06;24.88
11017;BME280;54687;50.800;6.772;2023-08-07T10:16:43;93591.75;;;-144.06;24.55
11017;BME280;54687;50.800;6.772;2023-08-07T10:19:09;93435.16;;;-144.06;24.58
11017;BME280;54687;50.800;6.772;2023-08-07T10:21:38;93293.38;;;-144.06;24.65
11017;BME280;54687;50.800;6.772;2023-08-07T10:24:06;93335.69;;;-144.06;24.70
11017;BME280;54687;50.800;6.772;2023-08-07T10:26:35;93198.16;;;-144.06;24.55
11017;BME280;54687;50.800;6.772;2023-08-07T10:29:07;93100.81;;;-144.06;24.47
11017;BME280;54687;50.800;6.772;2023-08-07T10:31:36;93071.19;;;-144.06;24.31
11017;BME280;54687;50.800;6.772;2023-08-07T10:34:02;92817.31;;;-144.06;24.50
11017;BME280;54687;50.800;6.772;2023-08-07T10:36:32;92715.75;;;-144.06;24.33
11017;BME280;54687;50.800;6.772;2023-08-07T10:39:06;92870.19;;;-144.06;24.26
11017;BME280;54687;50.800;6.772;2023-08-07T10:41:38;92806.72;;;-144.06;23.96
11017;BME280;54687;50.800;6.772;2023-08-07T10:44:16;92944.25;;;-144.06;23.95
11017;BME280;54687;50.800;6.772;2023-08-07T10:46:47;93105.06;;;-144.06;23.95
11017;BME280;54687;50.800;6.772;2023-08-07T10:49:32;93071.19;;;-144.06;24.24
11017;BME280;54687;50.800;6.772;2023-08-07T10:52:02;93020.41;;;-144.06;23.92
11017;BME280;54687;50.800;6.772;2023-08-07T10:54:29;92999.25;;;-144.06;23.87
11017;BME280;54687;50.800;6.772;2023-08-07T10:56:56;93003.50;;;-144.06;24.16
11017;BME280;54687;50.800;6.772;2023-08-07T10:59:24;92965.41;;;-144.06;24.00
11017;BME280;54687;50.800;6.772;2023-08-07T11:01:51;92770.75;;;-144.06;23.97
11017;BME280;54687;50.800;6.772;2023-08-07T11:04:19;92802.50;;;-144.06;24.03
11017;BME280;54687;50.800;6.772;2023-08-07T11:06:50;92669.22;;;-144.06;24.10
11017;BME280;54687;50.800;6.772;2023-08-07T11:09:17;92618.44;;;-144.06;23.60
11017;BME280;54687;50.800;6.772;2023-08-07T11:11:45;92800.38;;;-144.06;23.56
11017;BME280;54687;50.800;6.772;2023-08-07T11:14:13;92667.09;;;-144.06;23.60
11017;BME280;54687;50.800;6.772;2023-08-07T11:16:42;92775.00;;;-144.06;23.30
11017;BME280;54687;50.800;6.772;2023-08-07T11:19:09;92823.66;;;-144.06;23.59
11017;BME280;54687;50.800;6.772;2023-08-07T11:21:36;92830.00;;;-144.06;23.65
11017;BME280;54687;50.800;6.772;2023-08-07T11:24:03;92868.06;;;-144.06;23.72
11017;BME280;54687;50.800;6.772;2023-08-07T11:26:30;92775.00;;;-144.06;23.50
11017;BME280;54687;50.800;6.772;2023-08-07T11:28:57;92700.94;;;-144.06;23.42
11017;BME280;54687;50.800;6.772;2023-08-07T11:31:25;92766.53;;;-144.06;23.18
11017;BME280;54687;50.800;6.772;2023-08-07T11:33:55;92741.13;;;-144.06;23.30
11017;BME280;54687;50.800;6.772;2023-08-07T11:36:23;93113.50;;;-144.06;23.84
11017;BME280;54687;50.800;6.772;2023-08-07T11:38:50;92982.34;;;-144.06;23.52
11017;BME280;54687;50.800;6.772;2023-08-07T11:41:17;93024.66;;;-144.06;23.28
11017;BME280;54687;50.800;6.772;2023-08-07T11:43:44;92944.25;;;-144.06;23.44
11017;BME280;54687;50.800;6.772;2023-08-07T11:46:12;92931.56;;;-144.06;23.08
11017;BME280;54687;50.800;6.772;2023-08-07T11:48:40;93208.72;;;-144.06;23.28
11017;BME280;54687;50.800;6.772;2023-08-07T11:51:09;93138.91;;;-144.06;23.48
11017;BME280;54687;50.800;6.772;2023-08-07T11:53:37;93151.59;;;-144.06;23.25
11017;BME280;54687;50.800;6.772;2023-08-07T11:56:06;93054.28;;;-144.06;22.67
11017;BME280;54687;50.800;6.772;2023-08-07T11:58:35;92910.38;;;-144.06;22.54
11017;BME280;54687;50.800;6.772;2023-08-07T12:01:08;92821.53;;;-144.06;22.23
11017;BME280;54687;50.800;6.772;2023-08-07T12:03:36;92927.31;;;-144.06;22.42
11017;BME280;54687;50.800;6.772;2023-08-07T12:06:05;92730.56;;;-144.06;22.48
11017;BME280;54687;50.800;6.772;2023-08-07T12:08:36;92808.84;;;-144.06;22.47
11017;BME280;54687;50.800;6.772;2023-08-07T12:11:03;93071.19;;;-144.06;22.89
11017;BME280;54687;50.800;6.772;2023-08-07T12:13:31;93079.66;;;-144.06;22.89
11017;BME280;54687;50.800;6.772;2023-08-07T12:16:00;92975.97;;;-144.06;22.54
11017;BME280;54687;50.800;6.772;2023-08-07T12:18:28;92791.91;;;-144.06;22.69
11017;BME280;54687;50.800;6.772;2023-08-07T12:20:58;92533.81;;;-144.06;22.45
11017;BME280;54687;50.800;6.772;2023-08-07T12:23:25;92523.22;;;-144.06;22.23
11017;BME280;54687;50.800;6.772;2023-08-07T12:25:54;92480.91;;;-144.06;22.10
11017;BME280;54687;50.800;6.772;2023-08-07T12:28:20;92516.88;;;-144.06;22.59
11017;BME280;54687;50.800;6.772;2023-08-07T12:30:48;92656.50;;;-144.06;22.45
11017;BME280;54687;50.800;6.772;2023-08-07T12:33:15;92836.34;;;-144.06;22.90
11017;BME280;54687;50.800;6.772;2023-08-07T12:35:44;92766.53;;;-144.06;22.71
11017;BME280;54687;50.800;6.772;2023-08-07T12:38:10;92734.78;;;-144.06;22.69
11017;BME280;54687;50.800;6.772;2023-08-07T12:40:40;92673.44;;;-144.06;23.18
11017;BME280;54687;50.800;6.772;2023-08-07T12:43:08;92580.34;;;-144.06;23.13